createdAt,value
2019-03-05T00:00:22.071Z,96903.29
2019-03-05T00:03:09.648Z,96907.88
2019-03-05T00:05:56.986Z,96910.31
2019-03-05T00:08:44.498Z,96909.89
2019-03-05T00:11:31.921Z,96917.50
2019-03-05T00:14:20.580Z,96924.32
2019-03-05T00:17:07.999Z,96925.50
2019-03-05T00:19:55.583Z,96920.72
2019-03-05T00:22:43.155Z,96917.80
2019-03-05T00:25:33.443Z,96928.37
2019-03-05T00:28:30.070Z,96926.12
2019-03-05T00:31:23.074Z,96932.33
2019-03-05T00:34:19.700Z,96922.74
2019-03-05T00:37:10.072Z,96927.38
2019-03-05T00:40:00.510Z,96929.28
2019-03-05T00:43:05.808Z,96921.23
2019-03-05T00:45:56.511Z,96928.63
2019-03-05T00:48:52.539Z,96923.89
2019-03-05T00:51:42.930Z,96945.56
2019-03-05T00:54:51.452Z,96950.46
2019-03-05T00:57:55.145Z,96947.82
2019-03-05T01:00:48.898Z,96941.42
2019-03-05T01:04:13.817Z,96945.70
2019-03-05T01:07:01.560Z,96955.87
2019-03-05T01:09:48.881Z,96952.11
2019-03-05T01:12:36.412Z,96951.39
2019-03-05T01:15:23.833Z,96963.74
2019-03-05T01:18:11.669Z,96952.43
2019-03-05T01:20:59.197Z,96961.66
2019-03-05T01:23:46.868Z,96956.36
2019-03-05T01:26:34.008Z,96959.05
2019-03-05T01:29:21.570Z,96957.41
2019-03-05T01:32:10.555Z,96943.06
2019-03-05T01:35:02.668Z,96945.67
2019-03-05T01:37:50.102Z,96942.91
2019-03-05T01:40:38.033Z,96945.20
2019-03-05T01:43:25.354Z,96954.77
2019-03-05T01:46:12.739Z,96946.17
2019-03-05T01:49:00.398Z,96948.73
2019-03-05T01:51:48.132Z,96950.17
2019-03-05T01:54:35.758Z,96954.77
2019-03-05T01:57:23.538Z,96952.94
2019-03-05T02:00:12.248Z,96960.93
2019-03-05T02:02:59.771Z,96956.98
2019-03-05T02:05:47.374Z,96951.30
2019-03-05T02:08:34.621Z,96953.01
2019-03-05T02:11:22.353Z,96954.56
2019-03-05T02:14:09.986Z,96968.91
2019-03-05T02:16:57.202Z,96961.59
2019-03-05T02:19:46.430Z,96960.34
2019-03-05T02:22:34.918Z,96971.80
2019-03-05T02:25:34.523Z,96970.38
2019-03-05T02:28:52.773Z,96970.73
2019-03-05T02:32:12.153Z,96986.94
2019-03-05T02:35:05.613Z,96977.16
2019-03-05T02:38:05.896Z,96982.59
2019-03-05T02:40:59.300Z,96973.08
2019-03-05T02:44:20.273Z,96980.17
2019-03-05T02:47:13.793Z,96977.19
2019-03-05T02:50:22.605Z,96984.09
2019-03-05T02:53:22.470Z,96980.03
2019-03-05T02:56:29.828Z,96979.14
2019-03-05T02:59:16.415Z,96980.28
2019-03-05T03:02:23.911Z,96981.11
2019-03-05T03:05:16.078Z,96989.34
2019-03-05T03:08:03.025Z,96990.83
2019-03-05T03:10:50.687Z,96992.45
2019-03-05T03:13:38.249Z,96991.42
2019-03-05T03:16:25.641Z,96989.53
2019-03-05T03:19:13.069Z,96990.13
2019-03-05T03:22:00.602Z,97001.42
2019-03-05T03:24:48.026Z,97001.80
2019-03-05T03:27:35.642Z,97013.83
2019-03-05T03:30:23.494Z,97010.00
2019-03-05T03:33:11.051Z,97017.47
2019-03-05T03:35:58.436Z,97016.87
2019-03-05T03:38:45.850Z,97017.93
2019-03-05T03:41:33.457Z,97016.98
2019-03-05T03:44:20.700Z,96934.52
2019-03-05T03:47:07.842Z,97026.59
2019-03-05T03:49:55.751Z,97029.26
2019-03-05T03:52:43.388Z,97040.20
2019-03-05T03:55:30.907Z,97051.30
2019-03-05T03:58:18.433Z,97053.05
2019-03-05T04:01:07.294Z,97053.59
2019-03-05T04:03:54.659Z,97065.74
2019-03-05T04:06:42.140Z,97061.91
2019-03-05T04:09:29.769Z,97055.84
2019-03-05T04:12:17.196Z,96735.20
2019-03-05T04:15:06.993Z,97073.17
2019-03-05T04:17:54.324Z,97074.40
2019-03-05T04:20:43.458Z,97076.45
2019-03-05T04:23:30.734Z,97080.49
2019-03-05T04:26:19.742Z,97077.75
2019-03-05T04:29:07.272Z,97076.05
2019-03-05T04:31:54.853Z,97076.36
2019-03-05T04:34:42.232Z,97086.68
2019-03-05T04:37:30.152Z,97083.88
2019-03-05T04:40:18.000Z,97084.52
2019-03-05T04:43:05.939Z,97087.03
2019-03-05T04:45:57.767Z,97092.10
2019-03-05T04:48:46.935Z,97092.84
2019-03-05T04:51:36.299Z,97083.98
2019-03-05T04:54:24.135Z,97089.55
2019-03-05T04:57:11.560Z,97096.43
2019-03-05T04:59:58.984Z,97093.23
2019-03-05T05:02:46.609Z,97100.27
2019-03-05T05:05:33.933Z,97108.98
2019-03-05T05:08:21.664Z,97108.16
2019-03-05T05:11:09.300Z,97108.20
2019-03-05T05:13:57.435Z,97109.11
2019-03-05T05:16:45.064Z,97111.53
2019-03-05T05:19:32.599Z,97114.30
2019-03-05T05:22:19.807Z,97107.88
2019-03-05T05:25:07.948Z,97107.50
2019-03-05T05:27:55.581Z,97105.48
2019-03-05T05:30:43.314Z,97109.05
2019-03-05T05:33:31.148Z,97106.86
2019-03-05T05:36:19.799Z,97106.46
2019-03-05T05:39:10.396Z,97108.44
2019-03-05T05:41:57.929Z,97117.95
2019-03-05T05:44:45.242Z,97118.02
2019-03-05T05:47:32.569Z,97110.88
2019-03-05T05:50:19.684Z,97115.59
2019-03-05T05:53:07.004Z,97109.95
2019-03-05T05:55:54.427Z,97111.23
2019-03-05T05:58:41.983Z,97105.46
2019-03-05T06:01:29.583Z,97117.27
2019-03-05T06:04:17.158Z,97106.11
2019-03-05T06:07:05.050Z,97109.22
2019-03-05T06:09:52.571Z,97114.41
2019-03-05T06:12:39.796Z,97110.89
2019-03-05T06:15:27.394Z,97118.34
2019-03-05T06:18:15.231Z,97115.58
2019-03-05T06:21:02.448Z,97122.92
2019-03-05T06:23:49.902Z,97115.28
2019-03-05T06:26:37.526Z,97128.68
2019-03-05T06:29:24.953Z,97126.72
2019-03-05T06:32:12.175Z,97137.84
2019-03-05T06:34:59.374Z,97129.31
2019-03-05T06:37:47.009Z,97130.38
2019-03-05T06:40:34.221Z,97132.77
2019-03-05T06:43:21.868Z,97128.72
2019-03-05T06:46:09.172Z,97136.00
2019-03-05T06:48:56.595Z,97135.11
2019-03-05T06:51:44.328Z,97133.84
2019-03-05T06:54:31.648Z,97131.73
2019-03-05T06:57:19.484Z,97136.50
2019-03-05T07:00:29.852Z,97134.25
2019-03-05T07:03:17.478Z,97140.69
2019-03-05T07:06:37.060Z,97134.05
2019-03-05T07:09:45.471Z,97147.23
2019-03-05T07:12:36.487Z,97153.06
2019-03-05T07:15:45.097Z,97152.13
2019-03-05T07:18:37.810Z,97146.52
2019-03-05T07:21:40.033Z,97147.59
2019-03-05T07:24:43.004Z,97159.52
2019-03-05T07:27:30.533Z,97158.40
2019-03-05T07:30:18.466Z,97162.67
2019-03-05T07:33:06.200Z,97161.30
2019-03-05T07:35:53.626Z,97156.51
2019-03-05T07:38:41.457Z,97159.13
2019-03-05T07:41:28.676Z,97149.57
2019-03-05T07:44:16.409Z,97164.14
2019-03-05T07:47:04.651Z,97158.08
2019-03-05T07:49:51.690Z,97170.06
2019-03-05T07:52:39.089Z,97179.09
2019-03-05T07:55:26.516Z,97167.95
2019-03-05T07:58:13.732Z,97170.80
2019-03-05T08:01:01.694Z,97170.08
2019-03-05T08:03:49.300Z,97183.36
2019-03-05T08:06:36.725Z,97172.97
2019-03-05T08:09:32.241Z,97168.34
2019-03-05T08:12:26.011Z,97180.92
2019-03-05T08:15:22.649Z,97179.16
2019-03-05T08:18:09.973Z,97178.28
2019-03-05T08:20:58.059Z,97189.03
2019-03-05T08:23:48.375Z,97181.64
2019-03-05T08:26:34.905Z,97179.91
2019-03-05T08:29:22.431Z,97181.11
2019-03-05T08:32:10.165Z,97175.42
2019-03-05T08:34:57.793Z,97197.14
2019-03-05T08:37:45.027Z,97182.01
2019-03-05T08:40:32.436Z,97185.69
2019-03-05T08:43:21.189Z,97193.77
2019-03-05T08:46:08.716Z,97203.13
2019-03-05T08:48:55.940Z,97189.01
2019-03-05T08:51:43.389Z,97195.74
2019-03-05T08:54:30.796Z,97204.22
2019-03-05T08:57:18.107Z,97210.41
2019-03-05T09:00:22.837Z,97214.83
2019-03-05T09:03:10.166Z,97222.59
2019-03-05T09:05:58.012Z,97229.48
2019-03-05T09:08:45.624Z,97230.59
2019-03-05T09:11:32.949Z,97234.08
2019-03-05T09:14:20.569Z,97199.24
2019-03-05T09:17:07.997Z,97234.52
2019-03-05T09:19:54.910Z,97232.52
2019-03-05T09:22:42.025Z,97228.96
2019-03-05T09:25:29.760Z,97234.50
2019-03-05T09:28:17.390Z,97229.46
2019-03-05T09:31:05.219Z,97221.50
2019-03-05T09:33:52.029Z,97227.64
2019-03-05T09:36:50.486Z,97222.41
2019-03-05T09:39:30.060Z,97229.22
2019-03-05T09:42:17.798Z,97228.41
2019-03-05T09:45:06.745Z,97233.36
2019-03-05T09:47:53.734Z,97238.11
2019-03-05T09:50:40.565Z,97233.45
2019-03-05T09:53:28.326Z,97237.97
2019-03-05T09:56:16.130Z,97239.09
2019-03-05T09:59:05.538Z,97241.23
2019-03-05T10:01:54.262Z,97240.92
2019-03-05T10:04:41.681Z,97240.63
2019-03-05T10:07:29.000Z,97243.63
2019-03-05T10:10:21.651Z,97245.30
2019-03-05T10:13:09.073Z,97249.27
2019-03-05T10:15:56.152Z,97250.04
2019-03-05T10:18:43.412Z,97253.26
2019-03-05T10:21:31.141Z,97253.39
2019-03-05T10:24:18.673Z,97256.42
2019-03-05T10:27:06.193Z,97254.86
2019-03-05T10:29:53.820Z,97257.00
2019-03-05T10:32:41.557Z,97258.88
2019-03-05T10:35:28.691Z,97269.31
2019-03-05T10:38:17.280Z,97268.72
2019-03-05T10:41:04.951Z,97261.06
2019-03-05T10:43:52.514Z,97257.73
2019-03-05T10:46:39.902Z,97252.94
2019-03-05T10:49:27.443Z,97260.41
2019-03-05T10:52:14.632Z,97254.47
2019-03-05T10:55:01.969Z,97261.45
2019-03-05T10:57:49.598Z,97257.83
2019-03-05T11:00:46.237Z,97265.53
2019-03-05T11:03:33.721Z,97271.30
2019-03-05T11:06:21.192Z,97277.92
2019-03-05T11:09:09.142Z,97281.73
2019-03-05T11:11:56.658Z,97275.98
2019-03-05T11:14:44.998Z,97277.30
2019-03-05T11:17:34.114Z,97284.94
2019-03-05T11:20:21.690Z,97289.63
2019-03-05T11:23:11.533Z,97289.09
2019-03-05T11:25:58.277Z,97287.09
2019-03-05T11:28:46.114Z,97298.22
2019-03-05T11:31:33.124Z,97295.36
2019-03-05T11:34:20.553Z,97312.69
2019-03-05T11:37:08.077Z,97312.48
2019-03-05T11:39:55.706Z,97307.52
2019-03-05T11:42:42.721Z,97304.69
2019-03-05T11:45:30.553Z,97308.45
2019-03-05T11:48:18.391Z,97308.66
2019-03-05T11:51:05.916Z,97308.28
2019-03-05T11:53:53.952Z,97309.62
2019-03-05T11:56:41.481Z,97306.78
2019-03-05T11:59:28.579Z,97315.94
2019-03-05T12:02:21.654Z,97313.69
2019-03-05T12:05:12.388Z,97317.80
2019-03-05T12:07:59.798Z,97312.61
2019-03-05T12:10:47.305Z,97317.02
2019-03-05T12:13:35.246Z,97318.33
2019-03-05T12:16:22.670Z,97304.34
2019-03-05T12:19:09.989Z,97309.21
2019-03-05T12:21:57.003Z,97305.79
2019-03-05T12:24:44.125Z,97295.20
2019-03-05T12:27:31.645Z,97299.20
2019-03-05T12:30:27.977Z,97307.80
2019-03-05T12:33:15.502Z,97300.44
2019-03-05T12:36:02.830Z,97302.70
2019-03-05T12:38:49.945Z,97301.88
2019-03-05T12:41:37.572Z,97304.83
2019-03-05T12:44:24.786Z,97303.27
2019-03-05T12:47:12.016Z,97306.66
2019-03-05T12:49:59.528Z,97300.77
2019-03-05T12:52:47.304Z,97300.72
2019-03-05T12:55:35.715Z,97303.95
2019-03-05T12:58:23.036Z,97305.28
2019-03-05T13:01:09.948Z,97308.61
2019-03-05T13:03:57.579Z,97307.97
2019-03-05T13:06:45.106Z,97309.05
2019-03-05T13:09:32.250Z,97311.96
2019-03-05T13:12:19.953Z,97313.42
2019-03-05T13:15:10.779Z,97310.34
2019-03-05T13:17:58.044Z,97326.44
2019-03-05T13:20:45.388Z,97322.94
2019-03-05T13:23:32.639Z,97325.58
2019-03-05T13:26:20.350Z,97330.79
2019-03-05T13:29:07.878Z,97251.66
2019-03-05T13:31:55.712Z,97340.34
2019-03-05T13:34:43.034Z,97335.14
2019-03-05T13:37:30.359Z,97341.41
2019-03-05T13:40:23.413Z,97339.48
2019-03-05T13:43:10.937Z,97342.10
2019-03-05T13:45:58.260Z,97345.02
2019-03-05T13:49:05.548Z,97355.48
2019-03-05T13:52:14.377Z,97353.34
2019-03-05T13:55:13.829Z,97352.73
2019-03-05T13:58:22.400Z,97350.09
2019-03-05T14:01:11.347Z,97355.02
2019-03-05T14:04:01.139Z,97350.51
2019-03-05T14:06:57.244Z,97359.75
2019-03-05T14:09:43.056Z,97357.37
2019-03-05T14:12:30.476Z,97364.27
2019-03-05T14:15:19.295Z,97362.93
2019-03-05T14:18:06.474Z,97363.27
2019-03-05T14:20:53.647Z,97368.25
2019-03-05T14:23:41.348Z,97368.25
2019-03-05T14:26:29.567Z,97381.09
2019-03-05T14:29:17.140Z,97381.78
2019-03-05T14:32:04.700Z,97378.69
2019-03-05T14:34:58.703Z,97387.70
2019-03-05T14:37:46.985Z,97390.27
2019-03-05T14:40:34.406Z,97392.20
2019-03-05T14:43:21.685Z,97382.59
2019-03-05T14:46:09.102Z,97395.17
2019-03-05T14:48:56.534Z,97387.58
2019-03-05T14:51:43.895Z,97396.59
2019-03-05T14:54:31.484Z,97401.28
2019-03-05T14:57:18.853Z,97401.89
2019-03-05T15:00:12.579Z,97388.99
2019-03-05T15:02:59.800Z,97398.11
2019-03-05T15:05:47.456Z,97394.41
2019-03-05T15:08:35.142Z,97399.23
2019-03-05T15:11:22.499Z,97404.68
2019-03-05T15:14:10.415Z,97408.33
2019-03-05T15:16:57.913Z,97398.83
2019-03-05T15:19:45.462Z,97417.03
2019-03-05T15:22:32.878Z,97415.84
2019-03-05T15:25:20.437Z,97408.13
2019-03-05T15:28:08.274Z,97421.20
2019-03-05T15:30:55.608Z,97418.66
2019-03-05T15:33:43.066Z,97425.64
2019-03-05T15:36:30.509Z,97436.51
2019-03-05T15:39:17.490Z,97442.34
2019-03-05T15:42:05.380Z,97441.22
2019-03-05T15:44:52.695Z,97437.19
2019-03-05T15:47:42.655Z,97446.94
2019-03-05T15:50:31.167Z,97443.08
2019-03-05T15:53:18.558Z,97439.11
2019-03-05T15:56:06.472Z,97443.78
2019-03-05T15:58:53.282Z,97445.25
2019-03-05T16:01:41.119Z,97457.19
2019-03-05T16:04:28.176Z,97460.21
2019-03-05T16:07:16.379Z,97450.04
2019-03-05T16:10:05.019Z,97451.93
2019-03-05T16:12:52.449Z,97455.24
2019-03-05T16:15:41.873Z,97459.56
2019-03-05T16:18:29.084Z,97464.28
2019-03-05T16:21:16.674Z,97461.02
2019-03-05T16:24:04.269Z,97466.81
2019-03-05T16:26:51.824Z,97471.67
2019-03-05T16:29:39.049Z,97473.58
2019-03-05T16:32:28.289Z,97478.08
2019-03-05T16:35:33.454Z,97483.45
2019-03-05T16:38:25.379Z,97486.16
2019-03-05T16:41:20.498Z,97489.21
2019-03-05T16:44:08.229Z,97491.33
2019-03-05T16:47:05.983Z,97483.39
2019-03-05T16:50:00.601Z,97499.82
2019-03-05T16:52:52.613Z,97509.17
2019-03-05T16:55:41.673Z,97507.95
2019-03-05T16:58:36.363Z,97520.12
2019-03-05T17:01:31.367Z,97529.31
2019-03-05T17:04:26.660Z,97532.62
2019-03-05T17:07:21.471Z,97541.89
2019-03-05T17:10:20.882Z,97548.47
2019-03-05T17:13:08.707Z,97548.58
2019-03-05T17:15:55.927Z,97548.73
2019-03-05T17:18:42.946Z,97562.30
2019-03-05T17:21:30.369Z,97559.98
2019-03-05T17:24:19.326Z,97565.09
2019-03-05T17:27:06.955Z,97570.25
2019-03-05T17:29:54.174Z,97575.30
2019-03-05T17:32:42.316Z,97580.28
2019-03-05T17:35:29.572Z,97208.16
2019-03-05T17:38:17.267Z,97604.33
2019-03-05T17:41:05.001Z,97607.94
2019-03-05T17:43:52.733Z,97610.06
2019-03-05T17:46:39.645Z,97619.61
2019-03-05T17:49:27.071Z,97622.97
2019-03-05T17:52:15.001Z,97624.98
2019-03-05T17:55:02.530Z,97620.27
2019-03-05T17:57:49.645Z,97638.45
2019-03-05T18:00:41.341Z,97641.17
2019-03-05T18:03:28.833Z,97646.70
2019-03-05T18:06:16.749Z,97665.34
2019-03-05T18:09:05.444Z,97665.12
2019-03-05T18:11:53.629Z,97669.59
2019-03-05T18:14:41.871Z,97677.55
2019-03-05T18:17:30.184Z,97686.61
2019-03-05T18:20:19.524Z,97697.05
2019-03-05T18:23:07.063Z,97700.13
2019-03-05T18:25:53.926Z,97705.70
2019-03-05T18:28:41.461Z,97706.20
2019-03-05T18:31:29.083Z,97708.63
2019-03-05T18:34:16.808Z,97709.24
2019-03-05T18:37:04.405Z,97710.16
2019-03-05T18:39:51.658Z,97709.51
2019-03-05T18:42:39.217Z,97719.50
2019-03-05T18:45:34.596Z,97718.84
2019-03-05T18:48:22.020Z,97720.37
2019-03-05T18:51:09.726Z,97720.97
2019-03-05T18:53:56.705Z,97727.84
2019-03-05T18:56:43.971Z,97733.55
2019-03-05T18:59:30.975Z,97734.19
2019-03-05T19:02:18.627Z,97739.47
2019-03-05T19:05:26.534Z,97742.78
2019-03-05T19:08:14.365Z,97741.11
2019-03-05T19:11:01.484Z,97740.44
2019-03-05T19:13:49.318Z,97746.83
2019-03-05T19:16:36.539Z,97754.63
2019-03-05T19:19:23.857Z,97763.38
2019-03-05T19:22:11.156Z,97765.91
2019-03-05T19:24:58.505Z,97763.27
2019-03-05T19:27:46.948Z,97767.55
2019-03-05T19:30:40.729Z,97769.85
2019-03-05T19:33:28.247Z,97775.14
2019-03-05T19:36:15.365Z,97774.13
2019-03-05T19:39:04.098Z,97775.75
2019-03-05T19:41:56.071Z,97771.45
2019-03-05T19:44:39.910Z,97779.39
2019-03-05T19:47:27.525Z,97779.81
2019-03-05T19:50:17.469Z,97783.89
2019-03-05T19:53:05.034Z,97784.33
2019-03-05T19:55:52.455Z,97784.45
2019-03-05T19:58:42.101Z,97781.98
2019-03-05T20:01:31.938Z,97793.60
2019-03-05T20:04:19.746Z,97798.05
2019-03-05T20:07:07.374Z,97799.20
2019-03-05T20:09:54.901Z,97796.25
2019-03-05T20:12:42.324Z,97802.78
2019-03-05T20:15:30.164Z,97804.26
2019-03-05T20:18:17.892Z,97804.63
2019-03-05T20:21:05.215Z,97814.23
2019-03-05T20:23:52.327Z,97808.98
2019-03-05T20:26:40.059Z,97812.22
2019-03-05T20:29:28.178Z,97819.58
2019-03-05T20:32:16.139Z,97829.23
2019-03-05T20:35:03.563Z,97833.17
2019-03-05T20:37:51.503Z,97838.75
2019-03-05T20:40:39.432Z,97838.75
2019-03-05T20:43:26.753Z,97840.73
2019-03-05T20:46:19.092Z,97846.36
2019-03-05T20:49:06.619Z,97846.03
2019-03-05T20:51:54.149Z,97854.69
2019-03-05T20:54:41.983Z,97850.97
2019-03-05T20:57:29.608Z,97855.23
2019-03-05T21:00:24.450Z,97867.34
2019-03-05T21:03:13.363Z,97862.11
2019-03-05T21:06:02.838Z,97862.41
2019-03-05T21:08:50.773Z,97861.14
2019-03-05T21:11:38.608Z,97865.05
2019-03-05T21:14:26.547Z,97870.65
2019-03-05T21:17:14.787Z,97877.00
2019-03-05T21:20:02.212Z,97874.55
2019-03-05T21:22:49.329Z,97872.91
2019-03-05T21:25:36.705Z,97865.55
2019-03-05T21:28:24.074Z,97868.33
2019-03-05T21:31:11.499Z,97878.31
2019-03-05T21:33:58.930Z,97886.81
2019-03-05T21:36:46.145Z,97884.37
2019-03-05T21:39:34.183Z,97881.75
2019-03-05T21:42:21.408Z,97888.45
2019-03-05T21:45:15.175Z,97888.63
2019-03-05T21:48:02.706Z,97890.56
2019-03-05T21:50:50.536Z,97894.49
2019-03-05T21:53:38.167Z,97886.48
2019-03-05T21:56:25.689Z,97890.58
2019-03-05T21:59:13.359Z,97901.05
2019-03-05T22:02:00.841Z,97904.78
2019-03-05T22:04:48.267Z,97901.19
2019-03-05T22:07:35.691Z,97906.58
2019-03-05T22:10:23.426Z,97911.94
2019-03-05T22:13:11.054Z,97910.47
2019-03-05T22:15:58.479Z,97904.13
2019-03-05T22:18:46.110Z,97913.45
2019-03-05T22:21:33.447Z,97915.97
2019-03-05T22:24:21.000Z,97915.70
2019-03-05T22:27:08.795Z,97925.17
2019-03-05T22:29:56.521Z,97920.92
2019-03-05T22:32:44.046Z,97916.52
2019-03-05T22:35:32.188Z,97920.28
2019-03-05T22:38:19.710Z,97922.88
2019-03-05T22:41:07.238Z,97919.95
2019-03-05T22:43:54.765Z,97913.73
2019-03-05T22:46:42.293Z,97913.09
2019-03-05T22:49:29.720Z,97925.82
2019-03-05T22:52:17.036Z,97930.05
2019-03-05T22:55:06.073Z,97926.61
2019-03-05T22:57:53.726Z,97924.77
2019-03-05T23:00:51.434Z,97928.09
2019-03-05T23:03:40.231Z,97932.24
2019-03-05T23:06:27.907Z,97932.95
2019-03-05T23:09:17.146Z,97939.16
2019-03-05T23:12:05.389Z,97942.09
2019-03-05T23:14:53.028Z,97943.23
2019-03-05T23:17:40.648Z,97931.34
2019-03-05T23:20:28.279Z,97938.83
2019-03-05T23:23:16.216Z,97942.03
2019-03-05T23:26:03.845Z,97950.05
2019-03-05T23:28:51.366Z,97945.67
2019-03-05T23:31:38.587Z,97953.78
2019-03-05T23:34:26.423Z,97958.24
2019-03-05T23:37:14.152Z,97955.16
2019-03-05T23:40:01.782Z,97959.37
2019-03-05T23:42:49.716Z,97971.07
2019-03-05T23:45:37.242Z,97964.29
2019-03-05T23:48:24.975Z,97966.87
2019-03-05T23:51:12.100Z,97961.31
2019-03-05T23:53:59.858Z,97961.00
2019-03-05T23:56:47.657Z,97970.62
2019-03-05T23:59:35.080Z,97978.46
